createdAt,value
2022-09-12T04:30:55.656Z,4.00
2022-09-12T04:31:55.567Z,0.00
2022-09-12T04:32:55.555Z,4.00
2022-09-12T04:33:55.529Z,4.00
2022-09-12T04:34:55.527Z,4.00
2022-09-12T04:35:55.548Z,8.00
2022-09-12T04:36:55.561Z,4.00
2022-09-12T04:37:55.556Z,8.00
2022-09-12T04:38:55.467Z,8.00
2022-09-12T04:39:55.503Z,12.00
2022-09-12T04:40:55.476Z,12.00
2022-09-12T04:41:55.507Z,16.00
2022-09-12T04:42:55.424Z,20.00
2022-09-12T04:43:55.403Z,20.00
2022-09-12T04:45:02.444Z,24.00
2022-09-12T04:45:55.445Z,28.00
2022-09-12T04:46:55.445Z,36.00
2022-09-12T04:47:55.346Z,40.00
2022-09-12T04:48:56.994Z,48.00
2022-09-12T04:49:55.324Z,56.00
2022-09-12T04:50:55.371Z,64.00
2022-09-12T04:51:55.334Z,76.00
2022-09-12T04:52:55.312Z,84.00
2022-09-12T04:53:55.265Z,100.00
2022-09-12T04:54:55.263Z,112.00
2022-09-12T04:55:55.302Z,120.00
2022-09-12T04:56:55.249Z,136.00
2022-09-12T04:57:55.214Z,152.00
2022-09-12T04:58:55.212Z,168.00
2022-09-12T04:59:55.192Z,180.00
2022-09-12T05:00:55.249Z,200.00
2022-09-12T05:01:55.261Z,216.00
2022-09-12T05:02:55.153Z,236.00
2022-09-12T05:03:55.142Z,264.00
2022-09-12T05:04:55.122Z,284.00
2022-09-12T05:05:56.523Z,304.00
2022-09-12T05:06:55.112Z,328.00
2022-09-12T05:07:55.092Z,352.00
2022-09-12T05:08:55.079Z,380.00
2022-09-12T05:09:55.071Z,404.00
2022-09-12T05:10:55.051Z,436.00
2022-09-12T05:12:10.453Z,464.00
2022-09-12T05:12:56.035Z,492.00
2022-09-12T05:13:55.054Z,528.00
2022-09-12T05:14:55.019Z,560.00
2022-09-12T05:15:54.990Z,596.00
2022-09-12T05:16:55.052Z,632.00
2022-09-12T05:17:54.955Z,676.00
2022-09-12T05:18:54.944Z,712.00
2022-09-12T05:19:54.931Z,756.00
2022-09-12T05:20:54.920Z,800.00
2022-09-12T05:21:54.920Z,840.00
2022-09-12T05:22:54.890Z,884.00
2022-09-12T05:23:54.880Z,928.00
2022-09-12T05:24:54.889Z,972.00
2022-09-12T05:25:54.850Z,1020.00
2022-09-12T05:26:54.860Z,1060.00
2022-09-12T05:27:54.830Z,1100.00
2022-09-12T05:28:54.819Z,1148.00
2022-09-12T05:29:54.798Z,1188.00
2022-09-12T05:30:54.831Z,1240.00
2022-09-12T05:31:54.788Z,1296.00
2022-09-12T05:32:54.764Z,1344.00
2022-09-12T05:33:54.749Z,1392.00
2022-09-12T05:34:54.739Z,1428.00
2022-09-12T05:35:54.718Z,1464.00
2022-09-12T05:36:54.728Z,1484.00
2022-09-12T05:37:54.699Z,1512.00
2022-09-12T05:38:54.689Z,1560.00
2022-09-12T05:39:54.739Z,1608.00
2022-09-12T05:40:54.658Z,1660.00
2022-09-12T05:41:54.659Z,1712.00
2022-09-12T05:42:54.629Z,1760.00
2022-09-12T05:43:54.628Z,1808.00
2022-09-12T05:44:54.610Z,1848.00
2022-09-12T05:45:54.616Z,1876.00
2022-09-12T05:46:54.590Z,1908.00
2022-09-12T05:47:54.568Z,1928.00
2022-09-12T05:48:56.426Z,1936.00
2022-09-12T05:49:54.568Z,1984.00
2022-09-12T05:50:54.638Z,2028.00
2022-09-12T05:51:54.537Z,2044.00
2022-09-12T05:52:54.584Z,2128.00
2022-09-12T05:53:54.489Z,2188.00
2022-09-12T05:54:54.476Z,2220.00
2022-09-12T05:55:54.471Z,2320.00
2022-09-12T05:56:54.457Z,2424.00
2022-09-12T05:57:54.436Z,2484.00
2022-09-12T05:58:54.428Z,2536.00
2022-09-12T05:59:54.429Z,2608.00
2022-09-12T06:00:54.399Z,2688.00
2022-09-12T06:01:54.416Z,2728.00
2022-09-12T06:02:54.394Z,2744.00
2022-09-12T06:03:54.368Z,2840.00
2022-09-12T06:04:54.405Z,2844.00
2022-09-12T06:05:54.336Z,2868.00
2022-09-12T06:06:54.349Z,2924.00
2022-09-12T06:07:54.307Z,2972.00
2022-09-12T06:08:54.295Z,3012.00
2022-09-12T06:09:54.285Z,2996.00
2022-09-12T06:10:54.344Z,2956.00
2022-09-12T06:11:54.275Z,2924.00
2022-09-12T06:12:54.236Z,3004.00
2022-09-12T06:13:54.234Z,3064.00
2022-09-12T06:14:54.215Z,3152.00
2022-09-12T06:15:54.215Z,3164.00
2022-09-12T06:16:54.278Z,3172.00
2022-09-12T06:17:54.185Z,3188.00
2022-09-12T06:18:54.165Z,3484.00
2022-09-12T06:19:54.170Z,3732.00
2022-09-12T06:20:54.134Z,3784.00
2022-09-12T06:21:54.144Z,3824.00
2022-09-12T06:22:54.118Z,3880.00
2022-09-12T06:23:54.104Z,3932.00
2022-09-12T06:24:57.845Z,4012.00
2022-09-12T06:25:54.086Z,3984.00
2022-09-12T06:26:54.074Z,3972.00
2022-09-12T06:27:54.058Z,3992.00
2022-09-12T06:28:54.048Z,4052.00
2022-09-12T06:29:54.078Z,4004.00
2022-09-12T06:30:54.022Z,3980.00
2022-09-12T06:31:54.010Z,4012.00
2022-09-12T06:32:53.973Z,4092.00
2022-09-12T06:33:53.974Z,4372.00
2022-09-12T06:34:53.963Z,4520.00
2022-09-12T06:35:53.952Z,4564.00
2022-09-12T06:36:53.942Z,4604.00
2022-09-12T06:37:53.954Z,4616.00
2022-09-12T06:38:53.964Z,4644.00
2022-09-12T06:39:54.013Z,4656.00
2022-09-12T06:40:53.875Z,4692.00
2022-09-12T06:41:53.913Z,4656.00
2022-09-12T06:42:53.854Z,4684.00
2022-09-12T06:43:53.845Z,4796.00
2022-09-12T06:44:53.822Z,4844.00
2022-09-12T06:45:53.861Z,4844.00
2022-09-12T06:46:53.792Z,4852.00
2022-09-12T06:47:53.802Z,4832.00
2022-09-12T06:48:53.773Z,4820.00
2022-09-12T06:49:53.772Z,4828.00
2022-09-12T06:50:53.754Z,4832.00
2022-09-12T06:51:53.753Z,4856.00
2022-09-12T06:52:53.734Z,4900.00
2022-09-12T06:53:53.711Z,4900.00
2022-09-12T06:54:53.702Z,4856.00
2022-09-12T06:55:53.704Z,4812.00
2022-09-12T06:56:53.702Z,4772.00
2022-09-12T06:57:53.682Z,4732.00
2022-09-12T06:58:53.643Z,4684.00
2022-09-12T06:59:53.702Z,4688.00
2022-09-12T07:00:57.253Z,4668.00
2022-09-12T07:01:54.685Z,4660.00
2022-09-12T07:02:53.823Z,4752.00
2022-09-12T07:03:53.581Z,4812.00
2022-09-12T07:04:53.621Z,4804.00
2022-09-12T07:05:53.551Z,4752.00
2022-09-12T07:06:53.583Z,4760.00
2022-09-12T07:07:53.542Z,4792.00
2022-09-12T07:08:53.516Z,4816.00
2022-09-12T07:09:53.543Z,4860.00
2022-09-12T07:10:53.489Z,4880.00
2022-09-12T07:11:53.551Z,4896.00
2022-09-12T07:12:53.512Z,4880.00
2022-09-12T07:13:53.451Z,4876.00
2022-09-12T07:14:53.461Z,4840.00
2022-09-12T07:15:53.421Z,4832.00
2022-09-12T07:16:53.466Z,4796.00
2022-09-12T07:17:53.402Z,4756.00
2022-09-12T07:18:53.441Z,4716.00
2022-09-12T07:19:53.381Z,4672.00
2022-09-12T07:20:53.364Z,4628.00
2022-09-12T07:21:58.439Z,4584.00
2022-09-12T07:22:54.339Z,4544.00
2022-09-12T07:23:53.321Z,4508.00
2022-09-12T07:24:53.299Z,4468.00
2022-09-12T07:25:53.291Z,4424.00
2022-09-12T07:26:53.281Z,4388.00
2022-09-12T07:27:53.282Z,4360.00
2022-09-12T07:28:53.275Z,4324.00
2022-09-12T07:29:53.270Z,4288.00
2022-09-12T07:30:53.264Z,4260.00
2022-09-12T07:31:53.209Z,4232.00
2022-09-12T07:32:53.191Z,4208.00
2022-09-12T07:33:54.854Z,4172.00
2022-09-12T07:34:53.190Z,4144.00
2022-09-12T07:35:53.300Z,4116.00
2022-09-12T07:36:53.142Z,4092.00
2022-09-12T07:37:53.131Z,4064.00
2022-09-12T07:38:57.129Z,4044.00
2022-09-12T07:39:53.141Z,4028.00
2022-09-12T07:40:53.101Z,4024.00
2022-09-12T07:41:53.083Z,4024.00
2022-09-12T07:42:53.060Z,4036.00
2022-09-12T07:43:53.075Z,4052.00
2022-09-12T07:44:53.032Z,4080.00
2022-09-12T07:45:53.053Z,4116.00
2022-09-12T07:46:53.019Z,4156.00
2022-09-12T07:47:53.012Z,4200.00
2022-09-12T07:48:53.011Z,4244.00
2022-09-12T07:49:52.995Z,4288.00
2022-09-12T07:50:52.970Z,4340.00
2022-09-12T07:51:52.957Z,4380.00
2022-09-12T07:52:52.979Z,4428.00
2022-09-12T07:53:52.919Z,4476.00
2022-09-12T07:54:52.909Z,4532.00
2022-09-12T07:55:52.889Z,4576.00
2022-09-12T07:56:52.879Z,4628.00
2022-09-12T07:57:52.867Z,4680.00
2022-09-12T07:58:52.872Z,4724.00
2022-09-12T07:59:53.518Z,4780.00
2022-09-12T08:00:52.829Z,4836.00
2022-09-12T08:01:52.808Z,4896.00
2022-09-12T08:02:53.366Z,4964.00
2022-09-12T08:03:52.790Z,5040.00
2022-09-12T08:04:52.789Z,5112.00
2022-09-12T08:05:52.772Z,5196.00
2022-09-12T08:06:52.777Z,5268.00
2022-09-12T08:07:55.861Z,5336.00
2022-09-12T08:08:53.751Z,5400.00
2022-09-12T08:09:52.706Z,5464.00
2022-09-12T08:10:52.697Z,5528.00
2022-09-12T08:11:52.679Z,5588.00
2022-09-12T08:12:52.676Z,5648.00
2022-09-12T08:13:55.701Z,5700.00
2022-09-12T08:14:52.658Z,5752.00
2022-09-12T08:15:52.677Z,5804.00
2022-09-12T08:16:52.622Z,5840.00
2022-09-12T08:17:52.599Z,5880.00
2022-09-12T08:18:52.606Z,5908.00
2022-09-12T08:19:52.580Z,5932.00
2022-09-12T08:20:52.570Z,5956.00
2022-09-12T08:21:52.549Z,5952.00
2022-09-12T08:22:52.558Z,5952.00
2022-09-12T08:23:52.673Z,5948.00
2022-09-12T08:24:52.611Z,5944.00
2022-09-12T08:25:52.518Z,5932.00
2022-09-12T08:26:52.500Z,5916.00
2022-09-12T08:27:52.478Z,5872.00
2022-09-12T08:28:52.509Z,5840.00
2022-09-12T08:29:52.451Z,5808.00
2022-09-12T08:30:52.536Z,5792.00
2022-09-12T08:31:56.992Z,5784.00
2022-09-12T08:32:53.409Z,5764.00
2022-09-12T08:33:52.389Z,5752.00
2022-09-12T08:34:52.399Z,5748.00
2022-09-12T08:35:52.371Z,5752.00
2022-09-12T08:36:52.359Z,5772.00
2022-09-12T08:37:52.347Z,5804.00
2022-09-12T08:38:54.428Z,5836.00
2022-09-12T08:39:53.371Z,5896.00
2022-09-12T08:40:52.309Z,5972.00
2022-09-12T08:41:52.289Z,6068.00
2022-09-12T08:42:52.308Z,6188.00
2022-09-12T08:43:54.640Z,6320.00
2022-09-12T08:44:52.258Z,6500.00
2022-09-12T08:45:52.266Z,6796.00
2022-09-12T08:46:52.230Z,7104.00
2022-09-12T08:47:52.218Z,7320.00
2022-09-12T08:48:52.213Z,7476.00
2022-09-12T08:49:52.209Z,7572.00
2022-09-12T08:50:52.178Z,7708.00
2022-09-12T08:51:52.159Z,7868.00
2022-09-12T08:52:52.158Z,8048.00
2022-09-12T08:53:52.139Z,8068.00
2022-09-12T08:54:52.159Z,8156.00
2022-09-12T08:55:52.108Z,8360.00
2022-09-12T08:56:52.099Z,8772.00
2022-09-12T08:57:52.086Z,8996.00
2022-09-12T08:58:52.088Z,9448.00
2022-09-12T08:59:52.078Z,9820.00
2022-09-12T09:00:52.058Z,10092.00
2022-09-12T09:01:52.094Z,10040.00
2022-09-12T09:02:52.092Z,10404.00
2022-09-12T09:03:52.009Z,10204.00
2022-09-12T09:04:52.019Z,10816.00
2022-09-12T09:05:51.978Z,10684.00
2022-09-12T09:06:51.978Z,10204.00
2022-09-12T09:07:51.958Z,9944.00
2022-09-12T09:08:51.947Z,10232.00
2022-09-12T09:09:51.938Z,10124.00
2022-09-12T09:10:51.923Z,10304.00
2022-09-12T09:11:51.909Z,10008.00
2022-09-12T09:12:51.908Z,9736.00
2022-09-12T09:13:51.879Z,9848.00
2022-09-12T09:14:51.890Z,9412.00
2022-09-12T09:15:51.873Z,9132.00
2022-09-12T09:16:51.849Z,9036.00
2022-09-12T09:17:51.839Z,8672.00
2022-09-12T09:18:51.840Z,8348.00
2022-09-12T09:19:51.819Z,8456.00
2022-09-12T09:20:51.790Z,8428.00
2022-09-12T09:21:51.790Z,7992.00
2022-09-12T09:22:53.522Z,7888.00
2022-09-12T09:23:51.748Z,7620.00
2022-09-12T09:24:51.759Z,7504.00
2022-09-12T09:25:51.719Z,7512.00
2022-09-12T09:26:51.717Z,7100.00
2022-09-12T09:27:51.698Z,6948.00
2022-09-12T09:28:51.688Z,6988.00
2022-09-12T09:29:51.689Z,7032.00
2022-09-12T09:30:51.726Z,6928.00
2022-09-12T09:31:51.648Z,7124.00
2022-09-12T09:32:51.643Z,7452.00
2022-09-12T09:33:51.618Z,8028.00
2022-09-12T09:34:51.627Z,8012.00
2022-09-12T09:35:51.599Z,8840.00
2022-09-12T09:36:51.598Z,9084.00
2022-09-12T09:37:54.492Z,9460.00
2022-09-12T09:38:54.217Z,9048.00
2022-09-12T09:39:51.622Z,9296.00
2022-09-12T09:40:51.605Z,9952.00
2022-09-12T09:41:51.527Z,10600.00
2022-09-12T09:42:51.509Z,11576.00
2022-09-12T09:43:51.495Z,11800.00
2022-09-12T09:44:51.489Z,11908.00
2022-09-12T09:45:51.515Z,12220.00
2022-09-12T09:46:51.449Z,12380.00
2022-09-12T09:47:51.439Z,12408.00
2022-09-12T09:48:51.429Z,12296.00
2022-09-12T09:49:51.469Z,11632.00
2022-09-12T09:50:51.398Z,11404.00
2022-09-12T09:51:51.388Z,10136.00
2022-09-12T09:52:51.380Z,10868.00
2022-09-12T09:53:51.370Z,9600.00
2022-09-12T09:54:51.378Z,11932.00
2022-09-12T09:55:51.358Z,11520.00
2022-09-12T09:56:51.330Z,9756.00
2022-09-12T09:57:51.310Z,8456.00
2022-09-12T09:58:51.298Z,8316.00
2022-09-12T09:59:51.420Z,8716.00
2022-09-12T10:00:54.917Z,10376.00
2022-09-12T10:01:52.328Z,10504.00
2022-09-12T10:02:51.285Z,11052.00
2022-09-12T10:03:51.250Z,10276.00
2022-09-12T10:04:51.241Z,9056.00
2022-09-12T10:05:51.222Z,8520.00
2022-09-12T10:06:51.200Z,8612.00
2022-09-12T10:07:51.181Z,9568.00
2022-09-12T10:08:51.160Z,8996.00
2022-09-12T10:09:51.178Z,8948.00
2022-09-12T10:10:51.170Z,9276.00
2022-09-12T10:11:51.142Z,9880.00
2022-09-12T10:12:51.111Z,10168.00
2022-09-12T10:13:51.111Z,10136.00
2022-09-12T10:14:51.111Z,10208.00
2022-09-12T10:15:51.127Z,9888.00
2022-09-12T10:16:51.061Z,10264.00
2022-09-12T10:17:51.060Z,10336.00
2022-09-12T10:18:51.040Z,10628.00
2022-09-12T10:20:10.588Z,10660.00
2022-09-12T10:20:52.011Z,10780.00
2022-09-12T10:21:51.002Z,10672.00
2022-09-12T10:22:50.981Z,10620.00
2022-09-12T10:23:50.982Z,10448.00
2022-09-12T10:24:50.973Z,10392.00
2022-09-12T10:25:50.961Z,10224.00
2022-09-12T10:26:55.947Z,10416.00
2022-09-12T10:27:51.933Z,10492.00
2022-09-12T10:28:50.913Z,10672.00
2022-09-12T10:29:50.922Z,10660.00
2022-09-12T10:30:50.935Z,10612.00
2022-09-12T10:31:50.893Z,10672.00
2022-09-12T10:32:50.854Z,10716.00
2022-09-12T10:33:50.852Z,10832.00
2022-09-12T10:34:50.832Z,10968.00
2022-09-12T10:35:50.845Z,11048.00
2022-09-12T10:36:50.802Z,11168.00
2022-09-12T10:37:52.324Z,11232.00
2022-09-12T10:38:50.782Z,11260.00
2022-09-12T10:39:50.835Z,11272.00
2022-09-12T10:40:50.791Z,11312.00
2022-09-12T10:41:50.752Z,11316.00
2022-09-12T10:42:50.732Z,11256.00
2022-09-12T10:43:50.724Z,11260.00
2022-09-12T10:44:57.770Z,11156.00
2022-09-12T10:45:50.764Z,11256.00
2022-09-12T10:46:50.680Z,11388.00
2022-09-12T10:47:50.673Z,11480.00
2022-09-12T10:48:50.660Z,11532.00
2022-09-12T10:49:50.643Z,11660.00
2022-09-12T10:50:50.656Z,11800.00
2022-09-12T10:51:50.623Z,12100.00
2022-09-12T10:52:50.604Z,12296.00
2022-09-12T10:53:50.591Z,12416.00
2022-09-12T10:54:50.581Z,12548.00
2022-09-12T10:55:50.573Z,12888.00
2022-09-12T10:56:50.562Z,13152.00
2022-09-12T10:57:50.543Z,13256.00
2022-09-12T10:58:50.532Z,13464.00
2022-09-12T10:59:50.515Z,13676.00
2022-09-12T11:00:50.513Z,13916.00
2022-09-12T11:01:50.514Z,14184.00
2022-09-12T11:02:50.504Z,14568.00
2022-09-12T11:03:50.473Z,15488.00
2022-09-12T11:04:50.451Z,20160.00
2022-09-12T11:05:50.453Z,28896.00
2022-09-12T11:06:50.423Z,37696.00
2022-09-12T11:07:50.414Z,43584.00
2022-09-12T11:08:50.394Z,48256.00
2022-09-12T11:09:50.395Z,49568.00
2022-09-12T11:10:50.394Z,53568.00
2022-09-12T11:11:50.364Z,52576.00
2022-09-12T11:12:50.346Z,51136.00
2022-09-12T11:13:50.347Z,42560.00
2022-09-12T11:14:50.325Z,31712.00
2022-09-12T11:15:50.370Z,20096.00
2022-09-12T11:16:50.316Z,17024.00
2022-09-12T11:17:50.294Z,16960.00
2022-09-12T11:18:50.267Z,23648.00
2022-09-12T11:19:50.264Z,37856.00
2022-09-12T11:20:50.254Z,52512.00
2022-09-12T11:21:50.235Z,59200.00
2022-09-12T11:22:50.216Z,57664.00
2022-09-12T11:23:50.208Z,57216.00
2022-09-12T11:24:50.197Z,59616.00
2022-09-12T11:25:50.195Z,58912.00
2022-09-12T11:26:50.167Z,54944.00
2022-09-12T11:27:50.174Z,40704.00
2022-09-12T11:28:50.157Z,24704.00
2022-09-12T11:29:50.159Z,18304.00
2022-09-12T11:30:50.196Z,17888.00
2022-09-12T11:31:50.106Z,19072.00
2022-09-12T11:32:50.097Z,29472.00
2022-09-12T11:33:50.179Z,43872.00
2022-09-12T11:34:50.075Z,56768.00
2022-09-12T11:35:55.002Z,63392.00
2022-09-12T11:36:51.057Z,64256.00
2022-09-12T11:37:50.037Z,65056.00
2022-09-12T11:38:50.027Z,65920.00
2022-09-12T11:39:54.771Z,44640.00
2022-09-12T11:40:50.991Z,21408.00
2022-09-12T11:41:49.998Z,19552.00
2022-09-12T11:42:49.968Z,21248.00
2022-09-12T11:43:49.959Z,46432.00
2022-09-12T11:44:49.939Z,65184.00
2022-09-12T11:45:49.990Z,66752.00
2022-09-12T11:46:51.910Z,40224.00
2022-09-12T11:47:49.913Z,29568.00
2022-09-12T11:48:49.889Z,65120.00
2022-09-12T11:49:49.892Z,69056.00
2022-09-12T11:50:49.867Z,70080.00
2022-09-12T11:51:49.880Z,72096.00
2022-09-12T11:52:49.839Z,73632.00
2022-09-12T11:53:49.830Z,70400.00
2022-09-12T11:54:53.560Z,69376.00
2022-09-12T11:55:49.810Z,73120.00
2022-09-12T11:56:49.809Z,20224.00
2022-09-12T11:57:49.790Z,32576.00
2022-09-12T11:58:49.770Z,69184.00
2022-09-12T11:59:49.761Z,69440.00
2022-09-12T12:00:49.750Z,63168.00
2022-09-12T12:01:49.772Z,69952.00
2022-09-12T12:02:49.767Z,69888.00
2022-09-12T12:03:49.788Z,23424.00
2022-09-12T12:04:49.691Z,69696.00
2022-09-12T12:05:49.691Z,73248.00
2022-09-12T12:06:49.682Z,49184.00
2022-09-12T12:07:49.662Z,57856.00
2022-09-12T12:08:49.651Z,71040.00
2022-09-12T12:09:49.651Z,71776.00
2022-09-12T12:10:49.623Z,73632.00
2022-09-12T12:11:49.624Z,77024.00
2022-09-12T12:12:49.593Z,75808.00
2022-09-12T12:13:49.593Z,73600.00
2022-09-12T12:14:49.573Z,72704.00
2022-09-12T12:15:49.588Z,69312.00
2022-09-12T12:16:49.553Z,70560.00
2022-09-12T12:17:49.535Z,72032.00
2022-09-12T12:18:49.524Z,74208.00
2022-09-12T12:19:49.515Z,75200.00
2022-09-12T12:20:49.494Z,75104.00
2022-09-12T12:21:49.505Z,75840.00
2022-09-12T12:22:49.465Z,75136.00
2022-09-12T12:23:49.466Z,72576.00
2022-09-12T12:24:49.445Z,72160.00
2022-09-12T12:25:49.435Z,70656.00
2022-09-12T12:26:49.435Z,54880.00
2022-09-12T12:27:49.423Z,72256.00
2022-09-12T12:28:49.459Z,74048.00
2022-09-12T12:29:49.385Z,15968.00
2022-09-12T12:30:49.454Z,18112.00
2022-09-12T12:31:49.385Z,46144.00
2022-09-12T12:32:49.346Z,16544.00
2022-09-12T12:33:49.345Z,29344.00
2022-09-12T12:34:49.320Z,56832.00
2022-09-12T12:35:49.319Z,71296.00
2022-09-12T12:36:49.328Z,18752.00
2022-09-12T12:37:49.306Z,17952.00
2022-09-12T12:38:49.281Z,67776.00
2022-09-12T12:39:49.388Z,14360.00
2022-09-12T12:40:49.249Z,13416.00
2022-09-12T12:41:49.239Z,29184.00
2022-09-12T12:42:49.238Z,18816.00
2022-09-12T12:43:49.220Z,15080.00
2022-09-12T12:44:49.199Z,57568.00
2022-09-12T12:45:49.189Z,72928.00
2022-09-12T12:46:49.197Z,21984.00
2022-09-12T12:47:49.168Z,76448.00
2022-09-12T12:48:49.157Z,59392.00
2022-09-12T12:49:49.148Z,74400.00
2022-09-12T12:50:49.128Z,73088.00
2022-09-12T12:51:49.119Z,73792.00
2022-09-12T12:52:49.119Z,73280.00
2022-09-12T12:53:49.099Z,53824.00
2022-09-12T12:54:49.079Z,59040.00
2022-09-12T12:55:49.077Z,64480.00
2022-09-12T12:56:49.049Z,29696.00
2022-09-12T12:57:49.050Z,63360.00
2022-09-12T12:58:49.029Z,64800.00
2022-09-12T12:59:49.030Z,66112.00
2022-09-12T13:00:49.003Z,64448.00
2022-09-12T13:01:54.252Z,63648.00
2022-09-12T13:02:50.032Z,67840.00
2022-09-12T13:03:48.974Z,69120.00
2022-09-12T13:04:48.952Z,68032.00
2022-09-12T13:05:48.952Z,67040.00
2022-09-12T13:06:48.932Z,55232.00
2022-09-12T13:07:48.933Z,70976.00
2022-09-12T13:08:48.903Z,64576.00
2022-09-12T13:09:48.902Z,62880.00
2022-09-12T13:10:48.882Z,73664.00
2022-09-12T13:11:48.885Z,72992.00
2022-09-12T13:12:48.870Z,74432.00
2022-09-12T13:13:48.851Z,77216.00
2022-09-12T13:14:48.831Z,74144.00
2022-09-12T13:15:48.894Z,67488.00
2022-09-12T13:16:48.823Z,62368.00
2022-09-12T13:17:48.819Z,62112.00
2022-09-12T13:18:48.784Z,71104.00
2022-09-12T13:19:48.775Z,54400.00
2022-09-12T13:20:48.766Z,47744.00
2022-09-12T13:21:48.755Z,37600.00
2022-09-12T13:22:48.747Z,38496.00
2022-09-12T13:23:48.724Z,35072.00
2022-09-12T13:24:48.718Z,37824.00
2022-09-12T13:25:48.704Z,36032.00
2022-09-12T13:26:48.684Z,21760.00
2022-09-12T13:27:48.695Z,41952.00
2022-09-12T13:28:48.665Z,30624.00
2022-09-12T13:29:48.664Z,25312.00
2022-09-12T13:30:48.679Z,30624.00
2022-09-12T13:31:48.635Z,67776.00
2022-09-12T13:32:48.646Z,69344.00
2022-09-12T13:33:48.606Z,57824.00
2022-09-12T13:34:48.593Z,29888.00
2022-09-12T13:35:48.586Z,48320.00
2022-09-12T13:36:48.588Z,73632.00
2022-09-12T13:37:51.339Z,50240.00
2022-09-12T13:38:48.671Z,69376.00
2022-09-12T13:39:48.578Z,60192.00
2022-09-12T13:40:48.517Z,49472.00
2022-09-12T13:41:48.507Z,51328.00
2022-09-12T13:42:48.507Z,37856.00
2022-09-12T13:43:48.487Z,44384.00
2022-09-12T13:44:49.321Z,49408.00
2022-09-12T13:45:48.528Z,53504.00
2022-09-12T13:46:48.448Z,57280.00
2022-09-12T13:47:48.447Z,60704.00
2022-09-12T13:48:48.500Z,60032.00
2022-09-12T13:49:48.408Z,60608.00
2022-09-12T13:50:48.399Z,59232.00
2022-09-12T13:51:48.390Z,66848.00
2022-09-12T13:52:48.390Z,63936.00
2022-09-12T13:53:48.368Z,49664.00
2022-09-12T13:54:48.358Z,63456.00
2022-09-12T13:55:48.339Z,64192.00
2022-09-12T13:56:48.333Z,61728.00
2022-09-12T13:57:48.331Z,61600.00
2022-09-12T13:58:48.380Z,65312.00
2022-09-12T13:59:48.291Z,61536.00
2022-09-12T14:00:48.281Z,64608.00
2022-09-12T14:01:48.358Z,62432.00
2022-09-12T14:02:48.396Z,36800.00
2022-09-12T14:03:48.244Z,63200.00
2022-09-12T14:04:48.243Z,51392.00
2022-09-12T14:05:48.237Z,60448.00
2022-09-12T14:06:48.220Z,62784.00
2022-09-12T14:07:48.206Z,62688.00
2022-09-12T14:08:48.449Z,63040.00
2022-09-12T14:09:48.170Z,57376.00
2022-09-12T14:10:48.152Z,57216.00
2022-09-12T14:11:48.150Z,57856.00
2022-09-12T14:12:48.140Z,50848.00
2022-09-12T14:13:48.124Z,45568.00
2022-09-12T14:14:48.103Z,17024.00
2022-09-12T14:15:48.127Z,48384.00
2022-09-12T14:16:48.084Z,52960.00
2022-09-12T14:17:48.092Z,55808.00
2022-09-12T14:18:48.185Z,54464.00
2022-09-12T14:19:48.044Z,50656.00
2022-09-12T14:20:48.043Z,47872.00
2022-09-12T14:21:48.026Z,44960.00
2022-09-12T14:22:50.983Z,43328.00
2022-09-12T14:23:47.997Z,36320.00
2022-09-12T14:24:47.985Z,41152.00
2022-09-12T14:25:47.977Z,42592.00
2022-09-12T14:26:47.963Z,43040.00
2022-09-12T14:27:47.964Z,44288.00
2022-09-12T14:28:48.008Z,43936.00
2022-09-12T14:29:47.925Z,43040.00
2022-09-12T14:30:47.948Z,41600.00
2022-09-12T14:31:47.904Z,42976.00
2022-09-12T14:32:47.895Z,45696.00
2022-09-12T14:33:47.885Z,49376.00
2022-09-12T14:34:47.857Z,51232.00
2022-09-12T14:35:47.845Z,51264.00
2022-09-12T14:36:47.835Z,49536.00
2022-09-12T14:37:47.887Z,49760.00
2022-09-12T14:38:47.897Z,46560.00
2022-09-12T14:39:47.828Z,46240.00
2022-09-12T14:40:47.787Z,44960.00
2022-09-12T14:41:47.777Z,42464.00
2022-09-12T14:42:47.777Z,39296.00
2022-09-12T14:43:47.761Z,36256.00
2022-09-12T14:44:47.747Z,41472.00
2022-09-12T14:45:47.728Z,40480.00
2022-09-12T14:46:47.716Z,35968.00
2022-09-12T14:47:47.719Z,32448.00
2022-09-12T14:48:47.813Z,37792.00
2022-09-12T14:49:47.678Z,39456.00
2022-09-12T14:50:47.667Z,36128.00
2022-09-12T14:51:51.234Z,30368.00
2022-09-12T14:52:47.707Z,33120.00
2022-09-12T14:53:47.808Z,34304.00
2022-09-12T14:54:47.619Z,36480.00
2022-09-12T14:55:47.609Z,38592.00
2022-09-12T14:56:47.589Z,41664.00
2022-09-12T14:57:47.581Z,38752.00
2022-09-12T14:58:47.580Z,41728.00
2022-09-12T14:59:47.561Z,42400.00
2022-09-12T15:00:47.540Z,40192.00
2022-09-12T15:01:47.576Z,29824.00
2022-09-12T15:02:47.519Z,42048.00
2022-09-12T15:03:49.862Z,42304.00
2022-09-12T15:04:47.501Z,42976.00
2022-09-12T15:05:47.490Z,44192.00
2022-09-12T15:06:47.470Z,41248.00
2022-09-12T15:07:47.460Z,39200.00
2022-09-12T15:08:47.452Z,32064.00
2022-09-12T15:09:47.532Z,35840.00
2022-09-12T15:10:47.419Z,36352.00
2022-09-12T15:11:47.412Z,45920.00
2022-09-12T15:12:47.392Z,39744.00
2022-09-12T15:13:47.535Z,32064.00
2022-09-12T15:14:47.372Z,21792.00
2022-09-12T15:15:47.378Z,24096.00
2022-09-12T15:16:47.343Z,22848.00
2022-09-12T15:17:47.341Z,25536.00
2022-09-12T15:18:47.333Z,27328.00
2022-09-12T15:19:47.313Z,27136.00
2022-09-12T15:20:47.292Z,32192.00
2022-09-12T15:21:47.293Z,33664.00
2022-09-12T15:22:47.291Z,35424.00
2022-09-12T15:23:47.422Z,37312.00
2022-09-12T15:24:47.246Z,39168.00
2022-09-12T15:25:47.242Z,36704.00
2022-09-12T15:26:47.223Z,33856.00
2022-09-12T15:27:47.216Z,38272.00
2022-09-12T15:28:47.204Z,40160.00
2022-09-12T15:29:47.240Z,39328.00
2022-09-12T15:30:47.191Z,35456.00
2022-09-12T15:31:47.165Z,35168.00
2022-09-12T15:32:47.144Z,31584.00
2022-09-12T15:33:47.272Z,35296.00
2022-09-12T15:34:47.124Z,39168.00
2022-09-12T15:35:47.124Z,41920.00
2022-09-12T15:36:47.095Z,37984.00
2022-09-12T15:37:47.085Z,40192.00
2022-09-12T15:38:47.088Z,40896.00
2022-09-12T15:39:47.121Z,33728.00
2022-09-12T15:40:47.054Z,35968.00
2022-09-12T15:41:47.036Z,38624.00
2022-09-12T15:42:47.026Z,30464.00
2022-09-12T15:43:47.026Z,22528.00
2022-09-12T15:44:47.006Z,19840.00
2022-09-12T15:45:46.996Z,21120.00
2022-09-12T15:46:47.034Z,18656.00
2022-09-12T15:47:46.967Z,21856.00
2022-09-12T15:48:46.958Z,27168.00
2022-09-12T15:49:46.937Z,23744.00
2022-09-12T15:50:46.927Z,25376.00
2022-09-12T15:51:46.918Z,28160.00
2022-09-12T15:52:46.906Z,16736.00
2022-09-12T15:53:46.993Z,13960.00
2022-09-12T15:54:46.878Z,13028.00
2022-09-12T15:55:46.886Z,11704.00
2022-09-12T15:56:46.848Z,12868.00
2022-09-12T15:57:46.847Z,17152.00
2022-09-12T15:58:58.213Z,21568.00
2022-09-12T15:59:47.819Z,28000.00
2022-09-12T16:00:46.798Z,23392.00
2022-09-12T16:01:46.823Z,15936.00
2022-09-12T16:02:46.808Z,14060.00
2022-09-12T16:03:46.848Z,13840.00
2022-09-12T16:04:46.749Z,14560.00
2022-09-12T16:05:46.748Z,15360.00
2022-09-12T16:06:46.727Z,18528.00
2022-09-12T16:07:46.720Z,18592.00
2022-09-12T16:08:46.778Z,17408.00
2022-09-12T16:09:46.754Z,15488.00
2022-09-12T16:10:46.670Z,13260.00
2022-09-12T16:11:46.669Z,11528.00
2022-09-12T16:12:46.650Z,11976.00
2022-09-12T16:13:46.651Z,11892.00
2022-09-12T16:14:46.620Z,11420.00
2022-09-12T16:15:46.700Z,11284.00
2022-09-12T16:16:46.600Z,13724.00
2022-09-12T16:17:46.600Z,17472.00
2022-09-12T16:18:46.738Z,18080.00
2022-09-12T16:19:46.568Z,21216.00
2022-09-12T16:20:46.552Z,23648.00
2022-09-12T16:21:46.541Z,23168.00
2022-09-12T16:22:46.520Z,22112.00
2022-09-12T16:23:46.520Z,21792.00
2022-09-12T16:24:46.502Z,20480.00
2022-09-12T16:25:46.493Z,21728.00
2022-09-12T16:26:46.471Z,22848.00